createdAt,value
2022-10-18T00:01:09.276Z,101975.97
2022-10-18T00:06:15.638Z,101964.81
2022-10-18T00:08:43.587Z,101963.03
2022-10-18T00:11:11.987Z,101973.09
2022-10-18T00:13:39.926Z,101977.22
2022-10-18T00:16:13.336Z,101972.13
2022-10-18T00:18:42.142Z,101962.84
2022-10-18T00:21:16.555Z,101962.75
2022-10-18T00:23:46.879Z,101958.41
2022-10-18T00:26:20.900Z,101951.69
2022-10-18T00:28:55.208Z,101946.00
2022-10-18T00:31:29.407Z,101941.25
2022-10-18T00:34:00.770Z,101944.97
2022-10-18T00:36:30.659Z,101948.91
2022-10-18T00:38:59.118Z,101940.78
2022-10-18T00:41:30.499Z,101943.00
2022-10-18T00:44:00.523Z,101940.97
2022-10-18T00:46:31.398Z,101944.56
2022-10-18T00:49:03.030Z,101940.19
2022-10-18T00:51:44.520Z,101944.28
2022-10-18T00:54:15.394Z,101947.38
2022-10-18T00:56:45.207Z,101943.03
2022-10-18T00:59:16.147Z,101938.94
2022-10-18T01:01:46.045Z,101937.38
2022-10-18T01:04:15.991Z,101935.72
2022-10-18T01:07:01.586Z,101933.19
2022-10-18T01:09:42.187Z,101942.22
2022-10-18T01:12:33.222Z,101938.34
2022-10-18T01:15:06.238Z,101928.72
2022-10-18T01:17:50.157Z,101924.91
2022-10-18T01:20:29.938Z,101916.84
2022-10-18T01:23:29.576Z,101921.94
2022-10-18T01:26:14.087Z,101918.88
2022-10-18T01:28:54.054Z,101918.50
2022-10-18T01:31:46.158Z,101922.94
2022-10-18T01:34:17.358Z,101912.75
2022-10-18T01:36:51.246Z,101912.69
2022-10-18T01:39:28.369Z,101914.47
2022-10-18T01:41:59.998Z,101911.69
2022-10-18T01:44:31.708Z,101908.75
2022-10-18T01:47:00.836Z,101910.19
2022-10-18T01:49:29.046Z,101903.22
2022-10-18T01:51:57.087Z,101902.41
2022-10-18T01:54:40.458Z,101895.47
2022-10-18T01:57:31.238Z,101895.03
2022-10-18T02:00:24.660Z,101899.25
2022-10-18T02:03:07.217Z,101897.25
2022-10-18T02:05:57.717Z,101894.56
2022-10-18T02:08:39.428Z,101901.75
2022-10-18T02:11:11.057Z,101888.47
2022-10-18T02:14:09.787Z,101884.50
2022-10-18T02:16:47.337Z,101886.25
2022-10-18T02:19:18.998Z,101876.81
2022-10-18T02:21:48.816Z,101874.78
2022-10-18T02:24:18.877Z,101876.88
2022-10-18T02:26:47.648Z,101869.06
2022-10-18T02:29:16.219Z,101872.88
2022-10-18T02:31:47.679Z,101867.25
2022-10-18T02:34:48.706Z,101864.81
2022-10-18T02:37:18.951Z,101863.19
2022-10-18T02:39:49.566Z,101860.00
2022-10-18T02:42:18.067Z,101854.69
2022-10-18T02:44:45.918Z,101853.97
2022-10-18T02:47:14.257Z,101845.63
2022-10-18T02:49:42.190Z,101852.69
2022-10-18T02:52:10.267Z,101850.50
2022-10-18T02:54:38.416Z,101846.31
2022-10-18T02:57:06.515Z,101847.56
2022-10-18T02:59:34.322Z,101852.22
2022-10-18T03:02:02.470Z,101850.13
2022-10-18T03:04:30.583Z,101849.59
2022-10-18T03:06:59.352Z,101852.69
2022-10-18T03:09:27.421Z,101852.03
2022-10-18T03:11:55.525Z,101854.34
2022-10-18T03:14:23.608Z,101862.06
2022-10-18T03:16:51.918Z,101849.84
2022-10-18T03:19:19.928Z,101847.25
2022-10-18T03:21:48.077Z,101845.31
2022-10-18T03:24:16.145Z,101853.53
2022-10-18T03:26:44.457Z,101854.59
2022-10-18T03:29:12.516Z,101857.97
2022-10-18T03:31:40.630Z,101859.75
2022-10-18T03:34:08.598Z,101862.94
2022-10-18T03:36:36.927Z,101862.50
2022-10-18T03:39:05.006Z,101865.53
2022-10-18T03:41:33.288Z,101853.69
2022-10-18T03:44:01.248Z,101855.41
2022-10-18T03:46:29.416Z,101848.63
2022-10-18T03:48:57.407Z,101849.75
2022-10-18T03:51:25.627Z,101847.84
2022-10-18T03:53:53.566Z,101856.59
2022-10-18T03:56:21.742Z,101860.31
2022-10-18T03:58:49.686Z,101852.19
2022-10-18T04:01:17.911Z,101859.16
2022-10-18T04:03:45.888Z,101854.16
2022-10-18T04:06:14.030Z,101862.06
2022-10-18T04:08:41.889Z,101859.19
2022-10-18T04:11:11.580Z,101855.94
2022-10-18T04:13:39.487Z,101855.06
2022-10-18T04:16:07.805Z,101864.28
2022-10-18T04:18:35.708Z,101862.38
2022-10-18T04:21:04.041Z,101855.47
2022-10-18T04:23:35.056Z,101853.56
2022-10-18T04:26:07.057Z,101841.97
2022-10-18T04:28:35.853Z,101841.28
2022-10-18T04:31:04.047Z,101854.78
2022-10-18T04:33:32.238Z,101850.84
2022-10-18T04:36:00.417Z,101847.41
2022-10-18T04:38:28.667Z,101852.69
2022-10-18T04:40:56.911Z,101849.00
2022-10-18T04:43:24.837Z,101852.09
2022-10-18T04:45:53.042Z,101854.13
2022-10-18T04:48:21.580Z,101845.41
2022-10-18T04:50:51.642Z,101845.44
2022-10-18T04:53:19.700Z,101855.34
2022-10-18T04:55:51.457Z,101843.84
2022-10-18T04:58:20.064Z,101850.09
2022-10-18T05:00:48.909Z,101838.53
2022-10-18T05:03:17.638Z,101844.34
2022-10-18T05:06:03.065Z,101849.84
2022-10-18T05:08:33.877Z,101840.63
2022-10-18T05:11:03.544Z,101845.19
2022-10-18T05:14:22.944Z,101841.25
2022-10-18T05:16:51.155Z,101826.91
2022-10-18T05:19:19.002Z,101837.78
2022-10-18T05:21:47.365Z,101839.84
2022-10-18T05:24:15.327Z,101847.94
2022-10-18T05:26:43.507Z,101837.00
2022-10-18T05:29:11.479Z,101844.50
2022-10-18T05:32:30.072Z,101843.53
2022-10-18T05:35:27.241Z,101847.34
2022-10-18T05:38:00.538Z,101842.38
2022-10-18T05:40:33.489Z,101849.56
2022-10-18T05:43:01.830Z,101851.16
2022-10-18T05:45:29.885Z,101855.44
2022-10-18T05:47:58.160Z,101847.78
2022-10-18T05:50:26.329Z,101850.66
2022-10-18T05:53:06.903Z,101848.56
2022-10-18T05:55:46.406Z,101850.34
2022-10-18T05:58:14.811Z,101851.00
2022-10-18T06:00:42.934Z,101860.47
2022-10-18T06:03:11.390Z,101858.41
2022-10-18T06:08:13.556Z,101863.63
2022-10-18T06:10:42.773Z,101864.78
2022-10-18T06:13:14.219Z,101870.25
2022-10-18T06:15:42.541Z,101862.03
2022-10-18T06:18:11.026Z,101872.66
2022-10-18T06:20:39.091Z,101866.38
2022-10-18T06:23:07.421Z,101865.38
2022-10-18T06:25:35.773Z,101864.75
2022-10-18T06:28:07.941Z,101858.81
2022-10-18T06:30:38.311Z,101859.56
2022-10-18T06:33:06.581Z,101861.19
2022-10-18T06:35:34.679Z,101868.75
2022-10-18T06:38:03.070Z,101877.34
2022-10-18T06:40:31.241Z,101866.59
2022-10-18T06:43:19.663Z,101868.63
2022-10-18T06:45:49.555Z,101865.94
2022-10-18T06:51:00.461Z,101867.44
2022-10-18T06:53:32.220Z,101873.56
2022-10-18T06:56:10.333Z,101883.94
2022-10-18T06:58:39.502Z,101870.97
2022-10-18T07:01:19.942Z,101869.84
2022-10-18T07:03:49.862Z,101875.59
2022-10-18T07:06:19.941Z,101881.22
2022-10-18T07:08:50.271Z,101880.56
2022-10-18T07:11:25.325Z,101892.75
2022-10-18T07:14:00.640Z,101894.78
2022-10-18T07:16:29.171Z,101893.88
2022-10-18T07:18:57.441Z,101891.25
2022-10-18T07:21:28.066Z,101891.38
2022-10-18T07:23:57.837Z,101886.09
2022-10-18T07:26:31.777Z,101890.69
2022-10-18T07:29:08.220Z,101881.03
2022-10-18T07:31:38.759Z,101882.06
2022-10-18T07:34:08.337Z,101876.22
2022-10-18T07:36:36.415Z,101877.38
2022-10-18T07:39:05.320Z,101891.00
2022-10-18T07:41:34.327Z,101886.78
2022-10-18T07:44:04.137Z,101887.75
2022-10-18T07:46:32.356Z,101883.63
2022-10-18T07:49:00.904Z,101882.22
2022-10-18T07:51:31.335Z,101873.41
2022-10-18T07:53:59.905Z,101872.19
2022-10-18T07:56:28.018Z,101868.03
2022-10-18T07:58:57.077Z,101870.16
2022-10-18T08:01:26.566Z,101868.91
2022-10-18T08:03:55.012Z,101876.69
2022-10-18T08:06:23.796Z,101870.69
2022-10-18T08:08:52.734Z,101876.31
2022-10-18T08:11:23.860Z,101877.09
2022-10-18T08:13:53.679Z,101878.13
2022-10-18T08:16:24.566Z,101886.47
2022-10-18T08:18:53.677Z,101881.19
2022-10-18T08:21:22.091Z,101886.47
2022-10-18T08:23:51.243Z,101876.56
2022-10-18T08:26:21.407Z,101890.78
2022-10-18T08:28:58.171Z,101886.00
2022-10-18T08:31:31.994Z,101884.06
2022-10-18T08:34:00.734Z,101897.53
2022-10-18T08:36:28.737Z,101893.97
2022-10-18T08:38:56.913Z,101892.06
2022-10-18T08:41:43.625Z,101890.97
2022-10-18T08:44:23.697Z,101887.75
2022-10-18T08:46:56.670Z,101876.97
2022-10-18T08:49:44.180Z,101885.25
2022-10-18T08:52:30.096Z,101887.84
2022-10-18T08:55:02.331Z,101882.81
2022-10-18T08:57:31.963Z,101877.97
2022-10-18T09:00:06.581Z,101876.03
2022-10-18T09:02:37.758Z,101876.19
2022-10-18T09:05:06.059Z,101874.78
2022-10-18T09:08:11.978Z,101875.97
2022-10-18T09:11:05.922Z,101872.19
2022-10-18T09:13:57.388Z,101866.66
2022-10-18T09:16:55.230Z,101868.97
2022-10-18T09:19:47.365Z,101876.13
2022-10-18T09:22:19.329Z,101861.09
2022-10-18T09:25:06.960Z,101857.00
2022-10-18T09:27:51.539Z,101860.91
2022-10-18T09:30:59.617Z,101854.75
2022-10-18T09:33:46.919Z,101857.84
2022-10-18T09:36:39.288Z,101850.09
2022-10-18T09:39:14.589Z,101850.53
2022-10-18T09:42:08.060Z,101852.13
2022-10-18T09:44:44.758Z,101845.25
2022-10-18T09:47:39.609Z,101844.31
2022-10-18T09:50:29.669Z,101843.19
2022-10-18T09:53:35.542Z,101836.66
2022-10-18T09:56:30.428Z,101837.91
2022-10-18T09:58:58.630Z,101830.28
2022-10-18T10:01:30.721Z,101821.22
2022-10-18T10:03:58.941Z,101823.38
2022-10-18T10:06:30.591Z,101820.63
2022-10-18T10:09:07.968Z,101812.06
2022-10-18T10:11:45.953Z,101811.06
2022-10-18T10:14:24.028Z,101811.66
2022-10-18T10:16:56.522Z,101812.63
2022-10-18T10:19:35.313Z,101803.75
2022-10-18T10:22:11.079Z,101804.38
2022-10-18T10:24:54.564Z,101800.00
2022-10-18T10:27:34.044Z,101798.22
2022-10-18T10:30:07.233Z,101797.94
2022-10-18T10:32:48.823Z,101794.28
2022-10-18T10:35:52.506Z,101787.06
2022-10-18T10:38:27.498Z,101793.34
2022-10-18T10:40:56.520Z,101799.50
2022-10-18T10:43:39.214Z,101790.00
2022-10-18T10:46:13.043Z,101789.44
2022-10-18T10:48:47.087Z,101782.94
2022-10-18T10:51:29.081Z,101779.91
2022-10-18T10:54:23.512Z,101773.94
2022-10-18T10:57:04.371Z,101759.22
2022-10-18T10:59:46.652Z,101764.25
2022-10-18T11:02:15.332Z,101756.81
2022-10-18T11:04:49.121Z,101743.72
2022-10-18T11:07:41.293Z,101741.34
2022-10-18T11:10:35.154Z,101744.28
2022-10-18T11:13:18.920Z,101731.16
2022-10-18T11:15:52.851Z,101738.13
2022-10-18T11:18:34.100Z,101714.88
2022-10-18T11:21:31.958Z,101712.84
2022-10-18T11:24:03.400Z,101722.25
2022-10-18T11:27:13.863Z,101712.38
2022-10-18T11:30:23.974Z,101711.34
2022-10-18T11:33:18.263Z,101698.81
2022-10-18T11:36:19.168Z,101698.00
2022-10-18T11:39:01.244Z,101683.09
2022-10-18T11:41:40.851Z,101683.78
2022-10-18T11:44:17.680Z,101677.19
2022-10-18T11:46:51.038Z,101663.47
2022-10-18T11:49:43.059Z,101662.41
2022-10-18T11:52:47.563Z,101672.00
2022-10-18T11:55:27.654Z,101653.34
2022-10-18T11:58:36.041Z,101646.16
2022-10-18T12:01:13.681Z,101651.06
2022-10-18T12:04:14.341Z,101646.47
2022-10-18T12:06:45.730Z,101642.91
2022-10-18T12:09:38.313Z,101636.41
2022-10-18T12:12:29.937Z,101642.59
2022-10-18T12:15:25.910Z,101633.66
2022-10-18T12:17:57.470Z,101626.88
2022-10-18T12:21:02.754Z,101625.84
2022-10-18T12:23:42.924Z,101628.13
2022-10-18T12:26:11.736Z,101623.53
2022-10-18T12:29:17.192Z,101604.94
2022-10-18T12:32:12.654Z,101605.56
2022-10-18T12:34:57.440Z,101607.72
2022-10-18T12:37:56.141Z,101599.59
2022-10-18T12:40:33.682Z,101598.38
2022-10-18T12:43:17.122Z,101596.38
2022-10-18T12:45:57.963Z,101592.19
2022-10-18T12:48:30.380Z,101591.84
2022-10-18T12:51:04.866Z,101585.31
2022-10-18T12:53:34.471Z,101581.34
2022-10-18T12:56:34.591Z,101571.25
2022-10-18T12:59:17.479Z,101570.16
2022-10-18T13:01:54.816Z,101570.94
2022-10-18T13:04:29.131Z,101567.19
2022-10-18T13:07:19.371Z,101562.53
2022-10-18T13:10:15.340Z,101563.88
2022-10-18T13:13:38.775Z,101556.00
2022-10-18T13:16:23.309Z,101555.72
2022-10-18T13:19:18.011Z,101549.47
2022-10-18T13:21:55.321Z,101557.97
2022-10-18T13:24:38.031Z,101556.41
2022-10-18T13:27:36.950Z,101556.28
2022-10-18T13:30:17.834Z,101544.38
2022-10-18T13:32:54.879Z,101543.31
2022-10-18T13:35:52.371Z,101540.03
2022-10-18T13:38:43.650Z,101544.69
2022-10-18T13:41:17.300Z,101533.13
2022-10-18T13:43:56.932Z,101533.38
2022-10-18T13:46:34.400Z,101529.53
2022-10-18T13:49:17.021Z,101532.03
2022-10-18T13:52:08.440Z,101529.78
2022-10-18T13:54:55.048Z,101535.47
2022-10-18T13:58:05.599Z,101527.63
2022-10-18T14:00:49.026Z,101521.56
2022-10-18T14:03:59.022Z,101531.75
2022-10-18T14:06:27.511Z,101524.44
2022-10-18T14:09:25.522Z,101523.78
2022-10-18T14:12:40.886Z,101528.13
2022-10-18T14:15:23.810Z,101521.84
2022-10-18T14:17:54.864Z,101519.31
2022-10-18T14:20:27.156Z,101520.03
2022-10-18T14:23:23.821Z,101523.25
2022-10-18T14:26:06.021Z,101520.03
2022-10-18T14:28:48.359Z,101515.88
2022-10-18T14:31:22.809Z,101523.44
2022-10-18T14:33:57.952Z,101517.38
2022-10-18T14:36:31.032Z,101516.88
2022-10-18T14:39:05.270Z,101514.91
2022-10-18T14:41:37.129Z,101514.59
2022-10-18T14:44:18.990Z,101506.13
2022-10-18T14:47:12.253Z,101507.53
2022-10-18T14:49:45.510Z,101502.97
2022-10-18T14:52:24.033Z,101502.81
2022-10-18T14:54:59.520Z,101502.81
2022-10-18T14:57:35.273Z,101498.88
2022-10-18T15:00:18.270Z,101502.59
2022-10-18T15:02:46.870Z,101500.03
2022-10-18T15:05:22.337Z,101498.16
2022-10-18T15:07:52.372Z,101496.72
2022-10-18T15:10:30.340Z,101495.72
2022-10-18T15:13:11.178Z,101488.53
2022-10-18T15:15:40.409Z,101483.78
2022-10-18T15:18:19.612Z,101491.63
2022-10-18T15:21:20.412Z,101484.00
2022-10-18T15:23:50.379Z,101488.16
2022-10-18T15:26:29.819Z,101485.53
2022-10-18T15:29:01.681Z,101480.94
2022-10-18T15:31:36.568Z,101474.72
2022-10-18T15:34:14.650Z,101478.41
2022-10-18T15:39:22.183Z,101473.22
2022-10-18T15:41:55.984Z,101483.56
2022-10-18T15:44:35.244Z,101478.94
2022-10-18T15:47:12.771Z,101473.25
2022-10-18T15:49:47.191Z,101469.25
2022-10-18T15:52:38.306Z,101472.25
2022-10-18T15:55:31.983Z,101468.41
2022-10-18T15:58:11.522Z,101467.13
2022-10-18T16:00:39.938Z,101464.53
2022-10-18T16:03:11.488Z,101463.25
2022-10-18T16:05:40.480Z,101462.22
2022-10-18T16:08:28.977Z,101464.22
2022-10-18T16:10:59.107Z,101467.16
2022-10-18T16:13:27.762Z,101459.38
2022-10-18T16:15:56.213Z,101459.38
2022-10-18T16:18:25.302Z,101464.69
2022-10-18T16:20:53.679Z,101460.75
2022-10-18T16:23:26.991Z,101458.09
2022-10-18T16:25:55.598Z,101457.34
2022-10-18T16:28:26.153Z,101456.63
2022-10-18T16:31:00.405Z,101463.38
2022-10-18T16:33:28.812Z,101475.84
2022-10-18T16:35:57.312Z,101465.31
2022-10-18T16:38:35.339Z,101463.72
2022-10-18T16:41:05.715Z,101471.63
2022-10-18T16:43:35.349Z,101471.28
2022-10-18T16:46:04.722Z,101477.53
2022-10-18T16:48:33.337Z,101478.72
2022-10-18T16:51:02.112Z,101476.34
2022-10-18T16:53:30.137Z,101479.13
2022-10-18T16:56:00.847Z,101482.28
2022-10-18T16:58:30.143Z,101490.06
2022-10-18T17:01:01.019Z,101490.06
2022-10-18T17:03:31.072Z,101498.25
2022-10-18T17:05:59.307Z,101495.50
2022-10-18T17:08:28.433Z,101501.72
2022-10-18T17:10:59.271Z,101502.50
2022-10-18T17:13:27.297Z,101503.69
2022-10-18T17:15:56.457Z,101506.38
2022-10-18T17:18:30.725Z,101517.69
2022-10-18T17:21:03.214Z,101514.22
2022-10-18T17:23:31.543Z,101512.22
2022-10-18T17:26:05.625Z,101509.75
2022-10-18T17:28:35.445Z,101507.38
2022-10-18T17:31:06.952Z,101510.44
2022-10-18T17:33:35.363Z,101506.88
2022-10-18T17:36:04.288Z,101507.00
2022-10-18T17:38:32.323Z,101518.59
2022-10-18T17:41:06.739Z,101517.00
2022-10-18T17:43:34.816Z,101524.75
2022-10-18T17:46:03.274Z,101516.59
2022-10-18T17:48:31.557Z,101527.06
2022-10-18T17:50:59.864Z,101521.84
2022-10-18T17:53:29.387Z,101518.97
2022-10-18T17:56:02.390Z,101515.47
2022-10-18T17:58:31.631Z,101518.19
2022-10-18T18:01:09.882Z,101511.25
2022-10-18T18:03:38.079Z,101519.06
2022-10-18T18:06:35.242Z,101524.78
2022-10-18T18:09:13.229Z,101521.69
2022-10-18T18:11:48.455Z,101523.84
2022-10-18T18:14:17.876Z,101524.78
2022-10-18T18:16:47.186Z,101526.22
2022-10-18T18:19:16.243Z,101533.09
2022-10-18T18:21:44.608Z,101532.28
2022-10-18T18:24:14.229Z,101529.91
2022-10-18T18:26:43.620Z,101526.72
2022-10-18T18:29:12.997Z,101523.75
2022-10-18T18:31:43.978Z,101528.28
2022-10-18T18:34:12.555Z,101521.63
2022-10-18T18:36:41.510Z,101531.69
2022-10-18T18:39:25.839Z,101531.78
2022-10-18T18:41:54.140Z,101537.09
2022-10-18T18:44:22.867Z,101528.78
2022-10-18T18:46:51.173Z,101534.53
2022-10-18T18:49:19.338Z,101531.00
2022-10-18T18:51:47.649Z,101534.94
2022-10-18T18:54:16.273Z,101526.44
2022-10-18T18:56:44.965Z,101526.75
2022-10-18T18:59:14.572Z,101526.91
2022-10-18T19:01:43.780Z,101524.94
2022-10-18T19:04:12.229Z,101522.34
2022-10-18T19:06:43.201Z,101522.09
2022-10-18T19:09:22.073Z,101523.50
2022-10-18T19:11:53.596Z,101521.59
2022-10-18T19:14:25.308Z,101525.75
2022-10-18T19:16:57.805Z,101518.72
2022-10-18T19:19:28.723Z,101518.06
2022-10-18T19:22:01.004Z,101512.59
2022-10-18T19:24:31.178Z,101516.41
2022-10-18T19:27:02.320Z,101515.84
2022-10-18T19:29:33.338Z,101524.31
2022-10-18T19:32:04.667Z,101523.25
2022-10-18T19:34:37.947Z,101519.50
2022-10-18T19:37:07.999Z,101520.28
2022-10-18T19:39:37.617Z,101531.00
2022-10-18T19:42:10.818Z,101522.63
2022-10-18T19:44:43.289Z,101529.31
2022-10-18T19:47:15.207Z,101527.25
2022-10-18T19:49:44.417Z,101520.19
2022-10-18T19:52:14.300Z,101518.41
2022-10-18T19:54:46.158Z,101520.19
2022-10-18T19:57:16.132Z,101525.91
2022-10-18T19:59:44.605Z,101529.56
2022-10-18T20:02:16.140Z,101526.69
2022-10-18T20:04:44.714Z,101529.72
2022-10-18T20:07:13.588Z,101527.28
2022-10-18T20:09:42.470Z,101525.78
2022-10-18T20:12:10.679Z,101528.25
2022-10-18T20:14:39.139Z,101528.88
2022-10-18T20:17:12.715Z,101538.03
2022-10-18T20:19:41.670Z,101539.50
2022-10-18T20:22:10.690Z,101532.00
2022-10-18T20:24:40.454Z,101536.38
2022-10-18T20:27:09.629Z,101533.13
2022-10-18T20:29:38.153Z,101525.56
2022-10-18T20:32:06.828Z,101537.72
2022-10-18T20:34:35.528Z,101532.53
2022-10-18T20:37:04.154Z,101540.69
2022-10-18T20:39:34.159Z,101542.03
2022-10-18T20:42:03.040Z,101530.66
2022-10-18T20:44:34.080Z,101537.69
2022-10-18T20:47:02.342Z,101538.81
2022-10-18T20:49:30.420Z,101531.41
2022-10-18T20:51:58.523Z,101542.19
2022-10-18T20:54:27.383Z,101534.09
2022-10-18T20:56:55.629Z,101541.34
2022-10-18T20:59:23.644Z,101533.53
2022-10-18T21:01:52.229Z,101531.06
2022-10-18T21:04:20.556Z,101530.78
2022-10-18T21:06:48.956Z,101531.41
2022-10-18T21:09:19.590Z,101529.06
2022-10-18T21:11:50.436Z,101528.63
2022-10-18T21:14:20.495Z,101536.19
2022-10-18T21:16:50.312Z,101520.38
2022-10-18T21:19:25.001Z,101523.47
2022-10-18T21:21:57.532Z,101518.53
2022-10-18T21:24:26.916Z,101522.72
2022-10-18T21:26:56.519Z,101519.72
2022-10-18T21:29:25.163Z,101519.88
2022-10-18T21:31:56.153Z,101522.78
2022-10-18T21:34:24.205Z,101526.41
2022-10-18T21:36:52.653Z,101528.22
2022-10-18T21:41:57.755Z,101517.84
2022-10-18T21:44:25.925Z,101509.78
2022-10-18T21:46:55.364Z,101522.00
2022-10-18T21:49:25.278Z,101510.72
2022-10-18T21:51:53.636Z,101506.63
2022-10-18T21:54:21.843Z,101504.72
2022-10-18T21:56:51.604Z,101503.47
2022-10-18T21:59:19.665Z,101510.34
2022-10-18T22:01:47.964Z,101502.16
2022-10-18T22:04:25.277Z,101508.16
2022-10-18T22:06:53.766Z,101501.16
2022-10-18T22:09:22.944Z,101502.69
2022-10-18T22:11:53.517Z,101496.78
2022-10-18T22:14:22.197Z,101500.63
2022-10-18T22:16:51.274Z,101492.44
2022-10-18T22:19:20.064Z,101494.00
2022-10-18T22:21:48.610Z,101487.72
2022-10-18T22:24:17.377Z,101486.72
2022-10-18T22:26:46.636Z,101483.50
2022-10-18T22:29:17.747Z,101473.66
2022-10-18T22:31:51.997Z,101482.50
2022-10-18T22:34:27.931Z,101484.16
2022-10-18T22:36:56.955Z,101484.44
2022-10-18T22:39:25.316Z,101482.06
2022-10-18T22:41:56.595Z,101480.88
2022-10-18T22:44:25.330Z,101473.88
2022-10-18T22:46:53.834Z,101478.38
2022-10-18T22:49:21.849Z,101474.13
2022-10-18T22:51:50.191Z,101476.44
2022-10-18T22:54:18.588Z,101480.47
2022-10-18T22:56:46.865Z,101478.13
2022-10-18T22:59:15.022Z,101474.81
2022-10-18T23:01:43.317Z,101473.59
2022-10-18T23:04:11.425Z,101468.84
2022-10-18T23:06:40.414Z,101470.44
2022-10-18T23:09:10.835Z,101470.78
2022-10-18T23:11:39.305Z,101467.00
2022-10-18T23:14:07.860Z,101464.16
2022-10-18T23:16:36.154Z,101467.91
2022-10-18T23:19:04.887Z,101465.53
2022-10-18T23:21:34.467Z,101465.34
2022-10-18T23:24:02.433Z,101462.03
2022-10-18T23:26:30.880Z,101461.78
2022-10-18T23:28:59.097Z,101460.38
2022-10-18T23:31:33.163Z,101466.78
2022-10-18T23:34:04.492Z,101457.41
2022-10-18T23:36:34.436Z,101461.78
2022-10-18T23:39:03.758Z,101460.56
2022-10-18T23:41:32.792Z,101465.13
2022-10-18T23:44:00.725Z,101458.03
2022-10-18T23:46:29.097Z,101453.66
2022-10-18T23:48:57.194Z,101459.69
2022-10-18T23:51:25.430Z,101465.13
2022-10-18T23:53:53.515Z,101459.06
2022-10-18T23:56:21.754Z,101462.50
2022-10-18T23:58:49.743Z,101463.97
